createdAt,value
2022-12-25T00:02:02.961Z,5.60
2022-12-25T00:04:29.763Z,5.50
2022-12-25T00:06:56.670Z,5.50
2022-12-25T00:09:23.449Z,5.40
2022-12-25T00:11:50.226Z,5.30
2022-12-25T00:14:17.126Z,5.30
2022-12-25T00:16:44.029Z,5.30
2022-12-25T00:19:10.965Z,5.20
2022-12-25T00:21:37.772Z,5.20
2022-12-25T00:24:04.775Z,5.10
2022-12-25T00:26:31.610Z,5.00
2022-12-25T00:28:58.992Z,5.00
2022-12-25T00:31:26.399Z,4.90
2022-12-25T00:33:53.269Z,4.80
2022-12-25T00:36:22.481Z,4.80
2022-12-25T00:38:49.265Z,4.70
2022-12-25T00:41:38.979Z,4.60
2022-12-25T00:44:07.077Z,4.60
2022-12-25T00:46:34.045Z,4.60
2022-12-25T00:49:01.389Z,4.50
2022-12-25T00:51:28.589Z,4.50
2022-12-25T00:53:55.351Z,4.60
2022-12-25T00:56:22.282Z,4.60
2022-12-25T00:58:49.293Z,4.70
2022-12-25T01:01:16.153Z,4.80
2022-12-25T01:03:43.368Z,4.90
2022-12-25T01:06:12.801Z,4.90
2022-12-25T01:09:01.552Z,4.90
2022-12-25T01:11:29.302Z,4.90
2022-12-25T01:13:56.417Z,4.80
2022-12-25T01:16:23.235Z,4.80
2022-12-25T01:18:50.638Z,4.80
2022-12-25T01:21:22.282Z,4.80
2022-12-25T01:23:51.338Z,4.80
2022-12-25T01:26:19.727Z,4.70
2022-12-25T01:28:46.629Z,4.70
2022-12-25T01:31:16.444Z,4.80
2022-12-25T01:33:44.369Z,4.80
2022-12-25T01:36:16.976Z,4.80
2022-12-25T01:38:45.003Z,4.70
2022-12-25T01:41:13.098Z,4.60
2022-12-25T01:44:23.905Z,4.60
2022-12-25T01:46:50.672Z,4.50
2022-12-25T01:49:22.526Z,4.40
2022-12-25T01:51:52.086Z,4.30
2022-12-25T01:54:25.209Z,4.20
2022-12-25T01:56:56.114Z,4.10
2022-12-25T01:59:24.707Z,3.90
2022-12-25T02:01:51.756Z,3.80
2022-12-25T02:04:25.475Z,3.80
2022-12-25T02:06:53.540Z,3.70
2022-12-25T02:09:20.349Z,3.70
2022-12-25T02:11:56.399Z,3.80
2022-12-25T02:14:27.971Z,3.70
2022-12-25T02:17:20.570Z,3.60
2022-12-25T02:19:50.218Z,3.60
2022-12-25T02:22:53.596Z,3.50
2022-12-25T02:25:29.180Z,3.50
2022-12-25T02:28:19.812Z,3.50
2022-12-25T02:31:03.187Z,3.50
2022-12-25T02:33:54.337Z,3.60
2022-12-25T02:36:26.054Z,3.80
2022-12-25T02:39:17.183Z,3.90
2022-12-25T02:41:47.824Z,3.90
2022-12-25T02:44:39.262Z,4.30
2022-12-25T02:47:28.393Z,4.20
2022-12-25T02:50:15.810Z,4.20
2022-12-25T02:53:03.854Z,4.20
2022-12-25T02:55:57.156Z,4.20
2022-12-25T02:58:44.578Z,4.00
2022-12-25T03:01:36.942Z,3.90
2022-12-25T03:04:28.628Z,3.90
2022-12-25T03:07:08.113Z,3.80
2022-12-25T03:10:17.768Z,3.70
2022-12-25T03:12:52.318Z,3.60
2022-12-25T03:15:38.674Z,3.50
2022-12-25T03:18:11.905Z,3.40
2022-12-25T03:20:57.668Z,3.30
2022-12-25T03:23:48.495Z,3.20
2022-12-25T03:26:34.589Z,3.20
2022-12-25T03:29:01.773Z,3.10
2022-12-25T03:31:51.092Z,3.00
2022-12-25T03:34:50.778Z,2.90
2022-12-25T03:37:44.845Z,2.80
2022-12-25T03:40:45.555Z,3.00
2022-12-25T03:43:33.557Z,3.10
2022-12-25T03:46:24.497Z,3.00
2022-12-25T03:49:16.312Z,2.90
2022-12-25T03:52:03.589Z,2.80
2022-12-25T03:54:52.425Z,2.80
2022-12-25T03:57:37.709Z,2.70
2022-12-25T04:00:23.524Z,2.60
2022-12-25T04:03:25.661Z,2.50
2022-12-25T04:06:11.500Z,2.50
2022-12-25T04:08:57.223Z,2.40
2022-12-25T04:11:42.685Z,2.30
2022-12-25T04:14:28.119Z,2.30
2022-12-25T04:17:13.337Z,2.30
2022-12-25T04:19:58.773Z,2.20
2022-12-25T04:22:44.083Z,2.30
2022-12-25T04:25:29.328Z,2.20
2022-12-25T04:28:22.668Z,2.10
2022-12-25T04:31:08.190Z,2.10
2022-12-25T04:33:53.398Z,2.10
2022-12-25T04:36:21.122Z,2.00
2022-12-25T04:38:47.951Z,2.00
2022-12-25T04:41:14.909Z,1.90
2022-12-25T04:43:41.688Z,1.90
2022-12-25T04:46:08.562Z,1.90
2022-12-25T04:48:36.287Z,1.80
2022-12-25T04:51:17.915Z,1.80
2022-12-25T04:53:45.835Z,1.80
2022-12-25T04:56:13.201Z,1.80
2022-12-25T04:58:40.686Z,1.70
2022-12-25T05:01:07.577Z,1.70
2022-12-25T05:03:35.460Z,1.60
2022-12-25T05:06:03.254Z,1.60
2022-12-25T05:08:31.155Z,1.60
2022-12-25T05:10:58.175Z,1.60
2022-12-25T05:13:25.410Z,1.50
2022-12-25T05:15:52.390Z,1.50
2022-12-25T05:18:19.232Z,1.50
2022-12-25T05:20:55.042Z,1.40
2022-12-25T05:23:23.399Z,1.50
2022-12-25T05:25:50.228Z,1.50
2022-12-25T05:28:17.037Z,1.50
2022-12-25T05:30:44.160Z,1.40
2022-12-25T05:33:10.923Z,1.40
2022-12-25T05:35:38.749Z,1.30
2022-12-25T05:38:07.109Z,1.30
2022-12-25T05:40:34.940Z,1.30
2022-12-25T05:43:01.746Z,1.30
2022-12-25T05:45:28.515Z,1.30
2022-12-25T05:47:55.457Z,1.30
2022-12-25T05:50:22.293Z,1.30
2022-12-25T05:53:08.982Z,1.20
2022-12-25T05:55:37.236Z,1.20
2022-12-25T05:58:05.097Z,1.20
2022-12-25T06:00:32.185Z,1.10
2022-12-25T06:02:59.474Z,1.10
2022-12-25T06:05:26.750Z,1.10
2022-12-25T06:07:53.575Z,1.00
2022-12-25T06:10:20.599Z,1.00
2022-12-25T06:12:47.484Z,1.00
2022-12-25T06:15:14.580Z,1.00
2022-12-25T06:17:41.412Z,1.00
2022-12-25T06:20:08.970Z,0.90
2022-12-25T06:22:35.790Z,0.90
2022-12-25T06:25:02.819Z,0.90
2022-12-25T06:27:29.669Z,1.00
2022-12-25T06:29:56.953Z,1.00
2022-12-25T06:32:23.763Z,1.10
2022-12-25T06:34:50.948Z,1.20
2022-12-25T06:37:17.731Z,1.30
2022-12-25T06:39:44.506Z,1.30
2022-12-25T06:42:11.315Z,1.30
2022-12-25T06:44:38.590Z,1.50
2022-12-25T06:47:05.637Z,1.50
2022-12-25T06:49:32.425Z,1.60
2022-12-25T06:51:59.213Z,1.70
2022-12-25T06:54:25.976Z,1.70
2022-12-25T06:56:52.783Z,1.80
2022-12-25T06:59:20.006Z,1.80
2022-12-25T07:01:53.512Z,1.90
2022-12-25T07:04:40.233Z,1.90
2022-12-25T07:07:09.457Z,2.00
2022-12-25T07:09:38.856Z,2.10
2022-12-25T07:12:26.408Z,2.10
2022-12-25T07:14:56.397Z,2.10
2022-12-25T07:17:24.147Z,2.20
2022-12-25T07:19:51.356Z,2.20
2022-12-25T07:22:18.361Z,2.20
2022-12-25T07:24:45.310Z,2.20
2022-12-25T07:27:12.180Z,2.30
2022-12-25T07:29:39.074Z,2.30
2022-12-25T07:32:06.271Z,2.40
2022-12-25T07:34:33.191Z,2.30
2022-12-25T07:37:00.052Z,2.30
2022-12-25T07:39:27.030Z,2.40
2022-12-25T07:41:53.915Z,2.40
2022-12-25T07:44:20.691Z,2.40
2022-12-25T07:46:47.929Z,2.40
2022-12-25T07:49:14.779Z,2.40
2022-12-25T07:51:41.581Z,2.40
2022-12-25T07:54:08.416Z,2.50
2022-12-25T07:56:35.242Z,2.50
2022-12-25T07:59:02.152Z,2.50
2022-12-25T08:01:29.666Z,2.50
2022-12-25T08:04:01.915Z,2.50
2022-12-25T08:06:35.212Z,2.60
2022-12-25T08:09:11.346Z,2.60
2022-12-25T08:11:39.083Z,2.70
2022-12-25T08:14:07.575Z,2.60
2022-12-25T08:16:34.732Z,2.70
2022-12-25T08:19:01.693Z,2.70
2022-12-25T08:21:28.537Z,2.70
2022-12-25T08:23:55.403Z,2.60
2022-12-25T08:26:23.192Z,2.60
2022-12-25T08:28:50.367Z,2.50
2022-12-25T08:31:28.699Z,2.60
2022-12-25T08:33:57.630Z,2.60
2022-12-25T08:36:25.190Z,2.50
2022-12-25T08:38:56.970Z,2.40
2022-12-25T08:41:27.798Z,2.30
2022-12-25T08:43:55.081Z,2.30
2022-12-25T08:46:22.053Z,2.20
2022-12-25T08:48:50.216Z,2.10
2022-12-25T08:51:20.107Z,2.10
2022-12-25T08:53:48.853Z,2.20
2022-12-25T08:56:16.768Z,2.00
2022-12-25T08:58:43.591Z,2.00
2022-12-25T09:01:11.554Z,2.00
2022-12-25T09:03:38.766Z,2.10
2022-12-25T09:06:09.048Z,2.20
2022-12-25T09:08:38.885Z,2.30
2022-12-25T09:11:12.225Z,2.40
2022-12-25T09:13:39.545Z,2.30
2022-12-25T09:16:12.401Z,2.30
2022-12-25T09:18:39.741Z,2.20
2022-12-25T09:21:12.906Z,2.30
2022-12-25T09:23:40.115Z,2.40
2022-12-25T09:26:08.850Z,2.50
2022-12-25T09:28:35.675Z,2.60
2022-12-25T09:31:02.951Z,2.70
2022-12-25T09:33:29.829Z,2.80
2022-12-25T09:36:02.048Z,2.80
2022-12-25T09:38:29.338Z,2.90
2022-12-25T09:41:08.124Z,2.90
2022-12-25T09:43:51.264Z,3.00
2022-12-25T09:46:22.171Z,3.10
2022-12-25T09:49:03.490Z,3.10
2022-12-25T09:51:33.702Z,3.20
2022-12-25T09:54:13.300Z,3.30
2022-12-25T09:56:40.179Z,3.40
2022-12-25T09:59:25.168Z,3.40
2022-12-25T10:02:04.890Z,3.40
2022-12-25T10:04:47.729Z,3.40
2022-12-25T10:07:38.500Z,3.50
2022-12-25T10:10:36.488Z,3.50
2022-12-25T10:13:09.255Z,3.50
2022-12-25T10:15:57.284Z,3.40
2022-12-25T10:18:45.023Z,3.30
2022-12-25T10:21:18.139Z,3.30
2022-12-25T10:23:52.853Z,3.30
2022-12-25T10:26:22.520Z,3.20
2022-12-25T10:28:53.941Z,3.30
2022-12-25T10:31:22.690Z,3.40
2022-12-25T10:33:52.724Z,3.40
2022-12-25T10:36:26.026Z,3.30
2022-12-25T10:38:53.960Z,3.20
2022-12-25T10:41:47.627Z,3.30
2022-12-25T10:44:20.538Z,3.40
2022-12-25T10:46:52.758Z,3.50
2022-12-25T10:49:21.683Z,3.60
2022-12-25T10:51:48.495Z,3.80
2022-12-25T10:54:21.277Z,3.90
2022-12-25T10:57:01.696Z,3.80
2022-12-25T10:59:30.954Z,3.90
2022-12-25T11:02:13.705Z,4.00
2022-12-25T11:04:40.786Z,4.00
2022-12-25T11:07:20.057Z,4.10
2022-12-25T11:10:02.732Z,4.20
2022-12-25T11:12:37.295Z,4.20
2022-12-25T11:15:41.653Z,4.30
2022-12-25T11:18:21.756Z,4.40
2022-12-25T11:20:59.920Z,4.60
2022-12-25T11:23:29.085Z,4.70
2022-12-25T11:26:07.233Z,4.80
2022-12-25T11:28:37.004Z,4.80
2022-12-25T11:31:08.734Z,4.90
2022-12-25T11:33:40.954Z,4.90
2022-12-25T11:36:28.529Z,4.90
2022-12-25T11:38:55.636Z,5.00
2022-12-25T11:41:27.413Z,5.00
2022-12-25T11:43:59.366Z,5.10
2022-12-25T11:46:35.831Z,5.20
2022-12-25T11:49:08.245Z,5.20
2022-12-25T11:51:39.291Z,5.30
2022-12-25T11:54:16.389Z,5.30
2022-12-25T11:56:43.474Z,5.30
2022-12-25T11:59:14.917Z,5.40
2022-12-25T12:01:52.923Z,5.40
2022-12-25T12:04:36.939Z,5.50
2022-12-25T12:07:14.511Z,5.50
2022-12-25T12:09:47.528Z,5.60
2022-12-25T12:12:33.375Z,5.60
2022-12-25T12:15:35.805Z,5.70
2022-12-25T12:18:32.713Z,5.70
2022-12-25T12:21:01.093Z,5.80
2022-12-25T12:23:30.524Z,5.80
2022-12-25T12:25:58.068Z,5.80
2022-12-25T12:28:28.252Z,5.90
2022-12-25T12:31:04.111Z,5.90
2022-12-25T12:33:40.226Z,5.90
2022-12-25T12:36:11.344Z,5.90
2022-12-25T12:38:40.880Z,6.00
2022-12-25T12:41:08.842Z,6.00
2022-12-25T12:43:38.417Z,6.00
2022-12-25T12:46:24.397Z,6.00
2022-12-25T12:49:08.227Z,6.00
2022-12-25T12:51:37.734Z,5.90
2022-12-25T12:54:25.056Z,5.90
2022-12-25T12:57:25.575Z,5.90
2022-12-25T12:59:52.623Z,5.90
2022-12-25T13:02:54.449Z,5.90
2022-12-25T13:05:33.962Z,5.90
2022-12-25T13:08:16.391Z,5.90
2022-12-25T13:10:53.192Z,5.90
2022-12-25T13:13:35.814Z,6.00
2022-12-25T13:16:03.957Z,6.00
2022-12-25T13:18:32.587Z,6.00
2022-12-25T13:21:03.996Z,6.00
2022-12-25T13:23:35.906Z,6.00
2022-12-25T13:26:17.000Z,6.00
2022-12-25T13:28:46.861Z,6.00
2022-12-25T13:31:13.734Z,6.00
2022-12-25T13:33:45.121Z,6.00
2022-12-25T13:36:14.122Z,6.10
2022-12-25T13:38:50.874Z,6.10
2022-12-25T13:41:42.515Z,6.10
2022-12-25T13:44:30.648Z,6.00
2022-12-25T13:47:18.772Z,6.00
2022-12-25T13:49:46.543Z,6.00
2022-12-25T13:52:21.075Z,6.00
2022-12-25T13:55:13.924Z,6.00
2022-12-25T13:57:54.953Z,6.00
2022-12-25T14:00:38.913Z,6.00
2022-12-25T14:03:09.718Z,6.00
2022-12-25T14:05:42.806Z,6.00
2022-12-25T14:08:22.138Z,6.00
2022-12-25T14:10:52.423Z,6.00
2022-12-25T14:13:23.368Z,6.00
2022-12-25T14:15:51.064Z,6.00
2022-12-25T14:18:19.710Z,5.90
2022-12-25T14:21:03.487Z,6.00
2022-12-25T14:23:41.667Z,6.00
2022-12-25T14:26:22.980Z,6.00
2022-12-25T14:28:53.276Z,6.00
2022-12-25T14:31:21.175Z,6.00
2022-12-25T14:33:49.055Z,6.00
2022-12-25T14:36:15.997Z,6.10
2022-12-25T14:38:44.098Z,6.00
2022-12-25T14:41:33.305Z,6.10
2022-12-25T14:44:02.562Z,6.10
2022-12-25T14:46:31.866Z,6.10
2022-12-25T14:49:05.274Z,6.10
2022-12-25T14:51:35.179Z,6.10
2022-12-25T14:54:16.313Z,6.10
2022-12-25T14:56:47.536Z,6.20
2022-12-25T14:59:18.803Z,6.20
2022-12-25T15:01:51.520Z,6.30
2022-12-25T15:04:20.500Z,6.30
2022-12-25T15:07:07.083Z,6.20
2022-12-25T15:09:35.891Z,6.30
2022-12-25T15:12:02.695Z,6.30
2022-12-25T15:14:31.436Z,6.30
2022-12-25T15:17:00.794Z,6.30
2022-12-25T15:19:37.997Z,6.30
2022-12-25T15:22:05.240Z,6.30
2022-12-25T15:24:32.053Z,6.30
2022-12-25T15:27:00.596Z,6.30
2022-12-25T15:30:07.358Z,6.30
2022-12-25T15:32:20.356Z,6.40
2022-12-25T15:34:49.716Z,6.40
2022-12-25T15:37:18.116Z,6.40
2022-12-25T15:39:45.663Z,6.50
2022-12-25T15:42:23.095Z,6.50
2022-12-25T15:44:50.207Z,6.40
2022-12-25T15:47:20.136Z,6.50
2022-12-25T15:49:47.111Z,6.50
2022-12-25T15:52:15.261Z,6.50
2022-12-25T15:54:42.052Z,6.50
2022-12-25T15:57:17.997Z,6.50
2022-12-25T15:59:44.791Z,6.50
2022-12-25T16:02:17.311Z,6.50
2022-12-25T16:04:44.399Z,6.50
2022-12-25T16:07:19.443Z,6.60
2022-12-25T16:09:46.363Z,6.50
2022-12-25T16:12:13.141Z,6.50
2022-12-25T16:14:39.908Z,6.60
2022-12-25T16:17:06.906Z,6.60
2022-12-25T16:19:33.689Z,6.60
2022-12-25T16:22:00.480Z,6.60
2022-12-25T16:24:27.273Z,6.70
2022-12-25T16:26:54.163Z,6.60
2022-12-25T16:29:20.889Z,6.70
2022-12-25T16:31:47.744Z,6.70
2022-12-25T16:34:14.567Z,6.70
2022-12-25T16:36:41.313Z,6.70
2022-12-25T16:39:08.126Z,6.70
2022-12-25T16:41:35.212Z,6.80
2022-12-25T16:44:09.469Z,6.80
2022-12-25T16:46:37.660Z,6.80
2022-12-25T16:49:04.672Z,6.80
2022-12-25T16:51:31.821Z,6.80
2022-12-25T16:53:58.628Z,6.80
2022-12-25T16:56:28.122Z,6.90
2022-12-25T16:58:57.590Z,6.90
2022-12-25T17:01:25.150Z,6.90
2022-12-25T17:03:52.544Z,6.90
2022-12-25T17:06:21.038Z,6.90
2022-12-25T17:08:47.930Z,6.90
2022-12-25T17:11:15.640Z,7.00
2022-12-25T17:13:49.229Z,6.90
2022-12-25T17:16:22.927Z,7.00
2022-12-25T17:18:55.779Z,6.90
2022-12-25T17:21:23.848Z,7.00
2022-12-25T17:23:50.681Z,7.00
2022-12-25T17:26:17.642Z,7.10
2022-12-25T17:28:44.656Z,7.00
2022-12-25T17:31:13.274Z,7.00
2022-12-25T17:33:42.143Z,7.00
2022-12-25T17:36:13.544Z,7.10
2022-12-25T17:38:40.811Z,7.10
2022-12-25T17:41:10.185Z,7.10
2022-12-25T17:43:45.553Z,7.10
2022-12-25T17:46:18.353Z,7.10
2022-12-25T17:48:46.244Z,7.10
2022-12-25T17:51:18.313Z,7.20
2022-12-25T17:53:47.757Z,7.20
2022-12-25T17:56:15.257Z,7.20
2022-12-25T17:58:42.536Z,7.20
2022-12-25T18:01:15.831Z,7.20
2022-12-25T18:03:44.263Z,7.20
2022-12-25T18:06:13.678Z,7.20
2022-12-25T18:08:41.675Z,7.30
2022-12-25T18:11:11.305Z,7.20
2022-12-25T18:13:38.232Z,7.20
2022-12-25T18:16:07.202Z,7.30
2022-12-25T18:18:34.669Z,7.30
2022-12-25T18:21:02.173Z,7.30
2022-12-25T18:23:29.113Z,7.30
2022-12-25T18:25:56.129Z,7.30
2022-12-25T18:28:23.237Z,7.30
2022-12-25T18:30:50.107Z,7.40
2022-12-25T18:33:16.977Z,7.40
2022-12-25T18:35:46.170Z,7.40
2022-12-25T18:38:13.978Z,7.50
2022-12-25T18:40:46.618Z,7.40
2022-12-25T18:43:14.336Z,7.40
2022-12-25T18:45:42.381Z,7.50
2022-12-25T18:48:10.501Z,7.40
2022-12-25T18:50:39.419Z,7.50
2022-12-25T18:53:06.932Z,7.50
2022-12-25T18:55:35.778Z,7.50
2022-12-25T18:58:02.618Z,7.50
2022-12-25T19:00:29.393Z,7.50
2022-12-25T19:02:58.499Z,7.40
2022-12-25T19:05:25.505Z,7.50
2022-12-25T19:07:52.348Z,7.50
2022-12-25T19:10:19.324Z,7.50
2022-12-25T19:12:46.149Z,7.50
2022-12-25T19:15:13.364Z,7.50
2022-12-25T19:17:40.165Z,7.60
2022-12-25T19:20:07.891Z,7.60
2022-12-25T19:22:34.677Z,7.60
2022-12-25T19:25:01.585Z,7.60
2022-12-25T19:27:28.514Z,7.60
2022-12-25T19:29:55.337Z,7.50
2022-12-25T19:32:22.311Z,7.50
2022-12-25T19:34:49.102Z,7.60
2022-12-25T19:37:16.146Z,7.60
2022-12-25T19:39:46.674Z,7.60
2022-12-25T19:42:15.993Z,7.70
2022-12-25T19:44:44.023Z,7.60
2022-12-25T19:47:11.385Z,7.70
2022-12-25T19:49:40.588Z,7.70
2022-12-25T19:52:08.113Z,7.70
2022-12-25T19:54:35.083Z,7.70
2022-12-25T19:57:02.080Z,7.70
2022-12-25T19:59:28.863Z,7.70
2022-12-25T20:01:55.864Z,7.70
2022-12-25T20:04:22.810Z,7.80
2022-12-25T20:06:49.616Z,7.70
2022-12-25T20:09:21.207Z,7.80
2022-12-25T20:11:48.977Z,7.80
2022-12-25T20:14:16.483Z,7.80
2022-12-25T20:16:44.208Z,7.80
2022-12-25T20:19:13.107Z,7.80
2022-12-25T20:21:40.327Z,7.80
2022-12-25T20:24:10.159Z,7.70
2022-12-25T20:26:38.157Z,7.80
2022-12-25T20:29:05.041Z,7.80
2022-12-25T20:31:34.645Z,7.80
2022-12-25T20:34:06.502Z,7.80
2022-12-25T20:36:37.240Z,7.80
2022-12-25T20:39:05.697Z,7.90
2022-12-25T20:41:32.662Z,7.90
2022-12-25T20:44:00.009Z,7.80
2022-12-25T20:46:27.552Z,7.90
2022-12-25T20:48:54.661Z,7.90
2022-12-25T20:51:25.981Z,8.00
2022-12-25T20:53:54.173Z,8.00
2022-12-25T20:56:23.533Z,8.00
2022-12-25T20:58:58.839Z,8.00
2022-12-25T21:01:26.683Z,8.20
2022-12-25T21:03:54.419Z,8.10
2022-12-25T21:06:21.638Z,8.10
2022-12-25T21:08:48.891Z,8.10
2022-12-25T21:11:16.787Z,8.10
2022-12-25T21:13:46.048Z,8.10
2022-12-25T21:16:16.040Z,8.10
2022-12-25T21:18:43.021Z,8.20
2022-12-25T21:21:10.627Z,8.20
2022-12-25T21:23:39.602Z,8.20
2022-12-25T21:26:18.473Z,8.20
2022-12-25T21:28:47.028Z,8.20
2022-12-25T21:31:14.048Z,8.30
2022-12-25T21:33:53.212Z,8.20
2022-12-25T21:36:21.961Z,8.30
2022-12-25T21:38:54.122Z,8.30
2022-12-25T21:41:21.288Z,8.30
2022-12-25T21:43:48.137Z,8.30
2022-12-25T21:46:15.583Z,8.30
2022-12-25T21:48:45.611Z,8.40
2022-12-25T21:51:34.561Z,8.40
2022-12-25T21:54:02.140Z,8.30
2022-12-25T21:56:38.324Z,8.30
2022-12-25T21:59:09.836Z,8.50
2022-12-25T22:01:38.077Z,8.50
2022-12-25T22:04:07.848Z,8.50
2022-12-25T22:06:53.572Z,8.50
2022-12-25T22:09:21.769Z,8.50
2022-12-25T22:12:07.227Z,8.40
2022-12-25T22:14:55.301Z,8.50
2022-12-25T22:17:45.546Z,8.60
2022-12-25T22:20:15.463Z,8.60
2022-12-25T22:22:42.395Z,8.60
2022-12-25T22:25:10.754Z,8.70
2022-12-25T22:27:39.119Z,8.60
2022-12-25T22:30:08.342Z,8.70
2022-12-25T22:32:35.086Z,8.60
2022-12-25T22:35:01.931Z,8.60
2022-12-25T22:37:28.871Z,8.70
2022-12-25T22:39:55.616Z,8.70
2022-12-25T22:42:23.244Z,8.70
2022-12-25T22:44:50.176Z,8.70
2022-12-25T22:47:16.978Z,8.70
2022-12-25T22:49:43.716Z,8.80
2022-12-25T22:52:10.608Z,8.80
2022-12-25T22:54:38.164Z,8.90
2022-12-25T22:57:05.236Z,8.80
2022-12-25T22:59:35.619Z,8.80
2022-12-25T23:02:02.523Z,8.80
2022-12-25T23:04:29.585Z,8.80
2022-12-25T23:06:56.736Z,8.90
2022-12-25T23:09:27.651Z,9.00
2022-12-25T23:11:57.058Z,9.00
2022-12-25T23:14:40.350Z,9.00
2022-12-25T23:17:30.974Z,8.90
2022-12-25T23:20:18.451Z,9.10
2022-12-25T23:23:05.527Z,9.10
2022-12-25T23:25:53.958Z,9.10
2022-12-25T23:28:41.023Z,9.10
2022-12-25T23:31:07.958Z,9.10
2022-12-25T23:33:34.788Z,9.10
2022-12-25T23:36:01.632Z,9.10
2022-12-25T23:38:28.414Z,9.20
2022-12-25T23:40:55.271Z,9.20
2022-12-25T23:43:22.094Z,9.20
2022-12-25T23:45:48.966Z,9.20
2022-12-25T23:48:15.736Z,9.20
2022-12-25T23:50:42.525Z,9.30
2022-12-25T23:53:10.787Z,9.30
2022-12-25T23:55:37.680Z,9.30
2022-12-25T23:58:04.730Z,9.30
